KRZT

Ross County Airport

Chillicothe, Ohio, USA
METAR KRZT 201235Z AUTO 21013G17KT 10SM CLR 03/M05 A3006 RMK AO2
Observed Flight Rules
Jan-20 @ 12:35 UTC (33 minutes ago) Visual Flight Rules
Wind Visibility Clouds
210° at 13 knots
 Gusting to 17 knots
10 miles
  • Clear skies
Temperatures Readings
Current 3°C / 37°F
Dewpoint -5°C / 23°F
Humidity 56%
Altimeter 30.06" Hg
Pressure 1018 hPa
Elevation 221
METAR KRZT 201235Z AUTO 21013G17KT 10SM CLR 03/M05 A3006 RMK AO2
Observed Flight Rules
Jan-20 @ 12:35 UTC
(33 minutes ago)
VFR
Wind Visibility
210° at 13 knots
 Gusting to 17 knots
10 miles
Clouds
  • Clear skies
Temperature Dewpoint
3°C / 37°F -5°C / 23°F
Humidity Altimeter Pressure
56% 30.06" Hg 1018 hPa